Baker, Illinois
Current Conditions -  °F | °C
As of 6:38 AM on Wednesday 26 Nov 2014 (Local Time) from KARR Reporting Station
Haze Haze  
Wind Chill: 13°   Ceiling: 1400
Heat Index: 21°   Visibility: 4mi
Dew Point: 17°   Wind: 6mph
Humidity: 85%   Direction: 80°E
Pressure: 30.14"   Gusts: NA
Location:  41.5827°N, 88.7731°W
Report Text: KARR 261238Z AUTO 08005KT 4SM BR OVC014 M06/M08 A3014 RMK AO2 T10611083
Loading
Personal Weather Stations






























Interactive Weather Map New forecast layout! Learn more

10-Day Weather Forecast

Advertisements
Track Severe Weather on mobile